Terminal Aerodrome Forecast
Issued by NWS

Home | Current Version | Previous Version | Text Only | Print | Product List | Glossary On
Versions: 1 2 3 4 5 6 7 8 9 10 11 12 13 14 15 16 17
472
FTUS46 KPDT 260101 AAA
TAFRDM
TAF AMD
KRDM 260101Z 2601/2624 04010G20KT P6SM FEW050 SCT080
     FM260800 VRB03KT P6SM SCT070 SCT100
     FM262000 34008KT P6SM FEW080=

USA.gov is the U.S. government's official web portal to all federal, state and local government web resources and services.